Latest Coastal Weather Observations for Mallacoota

IDV60701

Issued at 4:21 pm EDT Thursday 19 October 2017 (issued every 10 minutes, with the page automatically refreshed every 10 minutes)

About coastal observations | Map of coastal stations | Coastal observations for VIC | Marine services | Other Formats
Station Details ID: 084084 Name: MALLACOOTA Lat: -37.60 Lon: 149.73 Height: 22.0 m
Data from the previous 72 hours. | See also: Recent months at Mallacoota
Date/Time
EDT
Temp
°C
Wind Pressure Rain since
9am
mm
Weather Cloud Vis
km
Sea
Height
m
Swell
Dir  Spd
kts
Gust
kts
hPa Trend Height
m
Period
s
Dir
19/04:00pm 19.1 SW 6 8 1016.9 - 1.0 - - - - - - -
19/03:30pm 20.2 SSW 14 23 1016.4 - 0.2 - - - - - - -
19/03:18pm 20.2 WSW 9 20 1016.4 - 0.0 - - - - - - -
19/03:00pm 25.2 N 5 10 1014.6 - 0.0 - - - - - - -
19/02:30pm 22.1 NE 9 11 1014.7 - 0.0 - - - - - - -
19/02:00pm 22.5 NE 5 8 1015.2 - 0.0 - - - - - - -
19/01:30pm 22.8 ENE 6 7 1015.3 - 0.0 - - - - - - -
19/01:00pm 25.3 NNE 5 7 1015.7 - 0.0 - - - - - - -
19/12:30pm 23.0 NE 6 7 1016.0 - 0.0 - - - - - - -
19/12:00pm 24.1 NNE 5 8 1016.5 - 0.0 - - - - - - -
19/11:30am 24.0 N 6 9 1016.9 - 0.0 - - - - - - -
19/11:00am 23.3 N 9 13 1017.3 - 0.0 - - - - - - -
19/10:30am 23.5 NNW 9 13 1017.6 - 0.0 - - - - - - -
19/10:00am 22.8 N 9 13 1017.8 - 0.0 - - - - - - -
19/09:30am 21.9 N 12 18 1017.9 - 0.0 - - - - - - -
19/09:00am 20.7 N 10 14 1018.1 - 0.0 - - - - - - -
19/08:30am 20.8 NNW 9 13 1018.4 - 0.0 - - - - - - -
19/08:00am 19.5 N 14 19 1018.4 - 0.0 - - - - - - -
19/07:30am 19.4 N 11 18 1018.6 - 0.0 - - - - - - -
19/07:00am 18.5 N 11 19 1018.7 - 0.0 - - - - - - -
19/06:30am 17.8 N 12 19 1018.7 - 0.0 - - - - - - -
19/06:00am 17.7 N 12 17 1018.8 - 0.0 - - - - - - -
19/05:30am 17.6 N 14 20 1018.8 - 0.0 - - - - - - -
19/05:00am 17.7 N 15 22 1018.5 - 0.0 - - - - - - -
19/04:30am 17.7 N 13 19 1018.4 - 0.0 - - - - - - -
19/04:00am 17.5 NNW 9 15 1018.6 - 0.0 - - - - - - -
19/03:30am 17.7 N 11 17 1018.9 - 0.0 - - - - - - -
19/03:00am 17.7 N 10 17 1019.0 - 0.0 - - - - - - -
19/02:30am 18.0 N 10 18 1019.4 - 0.0 - - - - - - -
19/02:00am 18.0 N 10 15 1019.6 - 0.0 - - - - - - -
19/01:30am 18.0 N 12 17 1020.0 - 0.0 - - - - - - -
19/01:00am 17.8 N 11 15 1020.4 - 0.0 - - - - - - -
19/12:30am 18.1 N 9 16 1020.7 - 0.0 - - - - - - -
19/12:00am 18.0 N 9 15 1020.9 - 0.0 - - - - - - -
 
Date/Time
EDT
Temp
°C
Wind Pressure Rain since
9am
mm
Weather Cloud Vis
km
Sea
Height
m
Swell
Dir  Spd
kts
Gust
kts
hPa Trend Height
m
Period
s
Dir
18/11:30pm 18.1 N 10 20 1020.9 - 0.0 - - - - - - -
18/11:00pm 18.3 N 9 14 1020.8 - 0.0 - - - - - - -
18/10:30pm 18.4 N 11 16 1020.8 - 0.0 - - - - - - -
18/10:00pm 18.6 N 13 18 1021.0 - 0.0 - - - - - - -
18/09:30pm 18.6 N 14 23 1021.0 - 0.0 - - - - - - -
18/09:00pm 18.8 N 13 22 1021.2 - 0.0 - - - - - - -
18/08:30pm 19.1 N 11 16 1021.2 - 0.0 - - - - - - -
18/08:00pm 19.5 NNE 14 23 1020.8 - 0.0 - - - - - - -
18/07:30pm 19.9 NNE 16 23 1020.4 - 0.0 - - - - - - -
18/07:00pm 20.2 NNE 15 23 1020.5 - 0.0 - - - - - - -
18/06:30pm 21.2 N 13 20 1020.6 - 0.0 - - - - - - -
18/06:00pm 22.0 NNE 12 17 1020.8 - 0.0 - - - - - - -
18/05:30pm 22.6 NNE 15 23 1020.8 - 0.0 - - - - - - -
18/05:00pm 23.0 N 15 25 1020.8 - 0.0 - - - - - - -
18/04:59pm 23.1 N 15 25 1020.8 - 0.0 - - - - - - -
18/04:30pm 23.1 NNE 14 19 1020.9 - 0.0 - - - - - - -
18/04:00pm 24.9 NNE 11 19 1021.0 - 0.0 - - - - - - -
18/03:30pm 25.0 N 13 22 1021.2 - 0.0 - - - - - - -
18/03:00pm 24.6 NNE 14 19 1021.4 - 0.0 - - - - - - -
18/02:30pm 25.0 NNE 13 19 1021.8 - 0.0 - - - - - - -
18/02:00pm 24.3 NNE 13 19 1022.2 - 0.0 - - - - - - -
18/01:30pm 24.9 NNE 13 19 1022.5 - 0.0 - - - - - - -
18/01:00pm 25.5 NNE 12 19 1022.9 - 0.0 - - - - - - -
18/12:30pm 25.0 NNE 14 21 1023.3 - 0.0 - - - - - - -
18/12:00pm 25.6 NNE 12 16 1023.7 - 0.0 - - - - - - -
18/11:30am 23.9 NE 9 15 1023.9 - 0.0 - - - - - - -
18/11:00am 23.4 NE 8 11 1024.3 - 0.0 - - - - - - -
18/10:30am 23.9 NNE 10 17 1024.4 - 0.0 - - - - - - -
18/10:00am 22.8 N 11 16 1024.5 - 0.0 - - - - - - -
18/09:30am 22.1 N 11 17 1024.4 - 0.0 - - - - - - -
18/09:00am 21.1 N 10 15 1024.1 - 0.0 - - - - - - -
18/08:30am 19.9 N 14 21 1024.0 - 0.0 - - - - - - -
18/08:00am 18.9 N 11 17 1023.8 - 0.0 - - - - - - -
18/07:30am 17.9 N 9 17 1023.7 - 0.0 - - - - - - -
18/07:00am 16.7 N 8 11 1023.6 - 0.0 - - - - - - -
18/06:30am 15.7 N 7 13 1023.4 - 0.0 - - - - - - -
18/06:00am 13.9 NW 4 6 1023.3 - 0.0 - - - - - - -
18/05:30am 14.1 NW 3 5 1023.3 - 0.0 - - - - - - -
18/05:00am 15.5 NNW 6 8 1023.2 - 0.0 - - - - - - -
18/04:30am 15.7 N 7 9 1023.3 - 0.0 - - - - - - -
18/04:00am 16.4 N 8 12 1023.3 - 0.0 - - - - - - -
18/03:30am 16.4 N 9 13 1023.3 - 0.0 - - - - - - -
18/03:00am 16.6 N 7 12 1023.4 - 0.0 - - - - - - -
18/02:30am 17.0 N 8 12 1023.4 - 0.0 - - - - - - -
18/02:00am 17.0 N 9 15 1023.5 - 0.0 - - - - - - -
18/01:30am 17.0 N 9 15 1023.8 - 0.0 - - - - - - -
18/01:00am 17.2 N 9 15 1024.1 - 0.0 - - - - - - -
18/12:30am 17.3 N 10 13 1024.2 - 0.0 - - - - - - -
18/12:00am 17.4 N 11 19 1024.2 - 0.0 - - - - - - -
 
Date/Time
EDT
Temp
°C
Wind Pressure Rain since
9am
mm
Weather Cloud Vis
km
Sea
Height
m
Swell
Dir  Spd
kts
Gust
kts
hPa Trend Height
m
Period
s
Dir
17/11:30pm 17.6 N 12 18 1024.2 - 0.0 - - - - - - -
17/11:00pm 17.9 N 12 21 1024.4 - 0.0 - - - - - - -
17/10:30pm 17.8 N 12 18 1024.5 - 0.0 - - - - - - -
17/10:00pm 18.1 N 12 20 1024.7 - 0.0 - - - - - - -
17/09:30pm 18.2 N 15 24 1024.8 - 0.0 - - - - - - -
17/09:00pm 18.4 N 16 27 1024.7 - 0.0 - - - - - - -
17/08:30pm 18.5 N 15 27 1024.7 - 0.0 - - - - - - -
17/08:28pm 18.6 N 15 27 1024.7 - 0.0 - - - - - - -
17/08:00pm 18.7 N 10 17 1024.7 - 0.0 - - - - - - -
17/07:30pm 19.1 N 11 19 1024.5 - 0.0 - - - - - - -
17/07:00pm 19.9 N 14 20 1024.2 - 0.0 - - - - - - -
17/06:30pm 21.1 N 13 19 1023.9 - 0.0 - - - - - - -
17/06:00pm 22.2 NNE 12 16 1023.5 - 0.0 - - - - - - -
17/05:30pm 22.9 NNE 12 17 1023.2 - 0.0 - - - - - - -
17/05:00pm 23.4 NNE 13 17 1022.8 - 0.0 - - - - - - -
17/04:30pm 24.7 NNE 12 19 1022.7 - 0.0 - - - - - - -
17/04:00pm 24.6 NNE 9 14 1022.7 - 0.0 - - - - - - -
17/03:30pm 24.2 NNE 11 16 1022.7 - 0.0 - - - - - - -
17/03:00pm 25.3 NNE 11 16 1022.8 - 0.0 - - - - - - -
17/02:30pm 25.5 NNE 11 15 1023.0 - 0.0 - - - - - - -
17/02:00pm 26.2 NE 11 16 1023.1 - 0.0 - - - - - - -
17/01:30pm 25.6 NE 9 13 1023.3 - 0.0 - - - - - - -
17/01:00pm 25.9 NNE 10 17 1023.5 - 0.0 - - - - - - -
17/12:30pm 25.7 NNE 9 14 1023.8 - 0.0 - - - - - - -
17/12:00pm 26.6 NNE 10 14 1024.0 - 0.0 - - - - - - -
17/11:30am 25.7 N 10 15 1024.5 - 0.0 - - - - - - -
17/11:00am 25.1 N 9 13 1024.8 - 0.0 - - - - - - -
17/10:30am 23.4 NNE 9 13 1024.9 - 0.0 - - - - - - -
17/10:00am 22.6 N 11 14 1025.0 - 0.0 - - - - - - -
17/09:30am 21.1 NNE 10 14 1025.1 - 0.0 - - - - - - -
17/09:00am 20.5 N 8 13 1024.9 - 0.0 - - - - - - -
17/08:30am 19.1 N 7 9 1024.9 - 0.0 - - - - - - -
17/08:00am 17.5 NNW 7 10 1024.8 - 0.0 - - - - - - -
17/07:30am 16.6 NNW 5 9 1024.6 - 0.0 - - - - - - -
17/07:00am 15.3 NNW 5 8 1024.3 - 0.0 - - - - - - -
17/06:30am 14.7 NNW 6 8 1024.0 - 0.0 - - - - - - -
17/06:00am 14.8 NNW 6 9 1023.6 - 0.0 - - - - - - -
17/05:30am 14.7 NNW 5 7 1023.5 - 0.0 - - - - - - -
17/05:00am 14.5 NNW 5 8 1023.4 - 0.0 - - - - - - -
17/04:30am 14.5 N 4 7 1023.5 - 0.0 - - - - - - -
17/04:00am 14.9 N 5 9 1023.4 - 0.0 - - - - - - -
17/03:30am 14.7 NNW 5 7 1023.7 - 0.0 - - - - - - -
17/03:00am 15.0 NNW 5 9 1024.0 - 0.0 - - - - - - -
17/02:30am 15.8 N 7 9 1024.1 - 0.0 - - - - - - -
17/02:00am 15.7 N 6 9 1024.5 - 0.0 - - - - - - -
17/01:30am 15.9 N 7 10 1025.0 - 0.0 - - - - - - -
17/01:00am 16.1 N 8 10 1025.3 - 0.0 - - - - - - -
17/12:30am 16.4 N 9 12 1025.5 - 0.0 - - - - - - -
17/12:00am 16.6 N 9 16 1025.6 - 0.0 - - - - - - -
 
Date/Time
EDT
Temp
°C
Wind Pressure Rain since
9am
mm
Weather Cloud Vis
km
Sea
Height
m
Swell
Dir  Spd
kts
Gust
kts
hPa Trend Height
m
Period
s
Dir
16/11:30pm 16.6 N 9 13 1025.7 - 0.0 - - - - - - -
16/11:00pm 17.0 N 11 16 1025.5 - 0.0 - - - - - - -
16/10:30pm 17.1 N 9 17 1025.6 - 0.0 - - - - - - -
16/10:00pm 17.1 N 9 13 1025.5 - 0.0 - - - - - - -
16/09:30pm 17.2 NNE 8 13 1025.3 - 0.0 - - - - - - -
16/09:00pm 17.3 N 8 15 1025.3 - 0.0 - - - - - - -
16/08:30pm 17.5 N 9 14 1025.1 - 0.0 - - - - - - -
16/08:00pm 17.9 N 10 15 1024.9 - 0.0 - - - - - - -
16/07:30pm 18.4 N 10 16 1024.6 - 0.0 - - - - - - -
16/07:00pm 19.1 N 11 17 1024.3 - 0.0 - - - - - - -
16/06:30pm 20.5 N 9 15 1024.1 - 0.0 - - - - - - -
16/06:00pm 21.7 N 10 16 1024.0 - 0.0 - - - - - - -
16/05:30pm 22.5 NNE 10 13 1023.8 - 0.0 - - - - - - -
16/05:00pm 22.6 NNE 10 13 1023.7 - 0.0 - - - - - - -
16/04:30pm 22.8 NNE 10 14 1023.7 - 0.0 - - - - - - -

Other Formats:

Comma delimited format used in spreadsheet applications
http://www.bom.gov.au/fwo/IDV60701/IDV60701.94935.axf

JavaScript Object Notation format (JSON) in row-major order
http://www.bom.gov.au/fwo/IDV60701/IDV60701.94935.json